createdAt,value
2017-09-03T00:00:42.230Z,10.67
2017-09-03T00:01:42.302Z,10.75
2017-09-03T00:02:42.267Z,10.72
2017-09-03T00:03:43.340Z,10.72
2017-09-03T00:04:42.281Z,10.69
2017-09-03T00:05:42.334Z,10.67
2017-09-03T00:06:42.307Z,10.69
2017-09-03T00:07:42.350Z,10.69
2017-09-03T00:08:42.333Z,10.67
2017-09-03T00:09:44.900Z,10.64
2017-09-03T00:10:42.357Z,10.60
2017-09-03T00:11:43.445Z,10.68
2017-09-03T00:12:42.383Z,10.59
2017-09-03T00:13:42.432Z,10.63
2017-09-03T00:14:42.398Z,10.71
2017-09-03T00:15:42.414Z,10.68
2017-09-03T00:16:42.426Z,10.68
2017-09-03T00:17:42.476Z,10.64
2017-09-03T00:18:42.532Z,10.59
2017-09-03T00:19:42.464Z,10.59
2017-09-03T00:20:42.545Z,10.57
2017-09-03T00:21:42.492Z,10.44
2017-09-03T00:22:42.555Z,10.49
2017-09-03T00:23:42.515Z,10.46
2017-09-03T00:24:42.579Z,10.48
2017-09-03T00:25:42.538Z,10.42
2017-09-03T00:26:42.584Z,10.41
2017-09-03T00:27:42.564Z,10.48
2017-09-03T00:28:42.600Z,10.46
2017-09-03T00:29:42.591Z,10.41
2017-09-03T00:30:42.612Z,10.38
2017-09-03T00:31:42.620Z,10.48
2017-09-03T00:32:42.731Z,10.35
2017-09-03T00:33:42.634Z,10.40
2017-09-03T00:34:42.749Z,10.38
2017-09-03T00:35:42.663Z,10.31
2017-09-03T00:36:42.755Z,10.38
2017-09-03T00:37:42.688Z,10.34
2017-09-03T00:38:42.771Z,10.33
2017-09-03T00:39:42.714Z,10.33
2017-09-03T00:40:42.785Z,10.28
2017-09-03T00:41:42.735Z,10.31
2017-09-03T00:42:42.750Z,10.26
2017-09-03T00:43:42.760Z,10.17
2017-09-03T00:44:42.809Z,10.23
2017-09-03T00:45:42.777Z,10.23
2017-09-03T00:46:42.829Z,10.22
2017-09-03T00:47:42.810Z,10.23
2017-09-03T00:48:42.822Z,10.20
2017-09-03T00:49:42.838Z,10.22
2017-09-03T00:50:42.946Z,10.17
2017-09-03T00:51:42.856Z,10.25
2017-09-03T00:52:42.958Z,10.22
2017-09-03T00:53:42.882Z,10.23
2017-09-03T00:54:42.971Z,10.25
2017-09-03T00:55:42.903Z,10.23
2017-09-03T00:56:44.012Z,10.19
2017-09-03T00:57:42.934Z,10.26
2017-09-03T00:58:42.999Z,10.20
2017-09-03T00:59:42.955Z,10.25
2017-09-03T01:00:43.011Z,10.16
2017-09-03T01:01:42.976Z,10.16
2017-09-03T01:02:43.036Z,10.25
2017-09-03T01:03:43.000Z,10.28
2017-09-03T01:04:43.038Z,10.22
2017-09-03T01:05:43.033Z,10.16
2017-09-03T01:06:43.151Z,10.19
2017-09-03T01:07:43.055Z,10.19
2017-09-03T01:08:43.167Z,10.16
2017-09-03T01:09:43.073Z,10.02
2017-09-03T01:10:43.179Z,10.10
2017-09-03T01:11:43.098Z,10.10
2017-09-03T01:12:43.188Z,10.13
2017-09-03T01:13:43.126Z,10.12
2017-09-03T01:14:43.204Z,10.02
2017-09-03T01:15:43.165Z,10.09
2017-09-03T01:16:44.929Z,10.07
2017-09-03T01:17:43.174Z,10.12
2017-09-03T01:18:43.184Z,10.15
2017-09-03T01:19:43.196Z,10.15
2017-09-03T01:20:45.928Z,10.13
2017-09-03T01:21:43.252Z,10.13
2017-09-03T01:22:43.238Z,10.12
2017-09-03T01:23:43.350Z,10.12
2017-09-03T01:24:43.254Z,10.05
2017-09-03T01:25:43.362Z,10.02
2017-09-03T01:26:43.280Z,10.01
2017-09-03T01:27:43.293Z,10.02
2017-09-03T01:28:43.310Z,9.94
2017-09-03T01:29:43.993Z,9.97
2017-09-03T01:30:43.328Z,9.95
2017-09-03T01:31:45.941Z,9.99
2017-09-03T01:32:43.348Z,9.92
2017-09-03T01:33:43.940Z,9.95
2017-09-03T01:34:43.381Z,9.95
2017-09-03T01:35:43.387Z,9.95
2017-09-03T01:36:43.447Z,10.02
2017-09-03T01:37:43.412Z,9.92
2017-09-03T01:38:43.429Z,9.83
2017-09-03T01:39:43.431Z,9.87
2017-09-03T01:40:43.450Z,9.84
2017-09-03T01:41:43.464Z,9.86
2017-09-03T01:42:43.505Z,9.84
2017-09-03T01:43:43.482Z,9.86
2017-09-03T01:44:43.602Z,9.83
2017-09-03T01:45:43.503Z,9.83
2017-09-03T01:46:43.612Z,9.94
2017-09-03T01:47:43.551Z,9.86
2017-09-03T01:48:43.631Z,9.89
2017-09-03T01:49:43.545Z,9.79
2017-09-03T01:50:43.643Z,9.89
2017-09-03T01:51:43.584Z,9.79
2017-09-03T01:52:43.656Z,9.80
2017-09-03T01:53:43.600Z,9.82
2017-09-03T01:54:43.670Z,9.74
2017-09-03T01:55:43.628Z,9.80
2017-09-03T01:56:43.639Z,9.74
2017-09-03T01:57:43.644Z,9.72
2017-09-03T01:58:43.660Z,9.80
2017-09-03T01:59:43.672Z,9.73
2017-09-03T02:00:43.685Z,9.69
2017-09-03T02:01:43.694Z,9.62
2017-09-03T02:02:43.709Z,9.72
2017-09-03T02:03:43.723Z,9.61
2017-09-03T02:04:43.734Z,9.58
2017-09-03T02:05:43.741Z,9.64
2017-09-03T02:06:43.757Z,9.64
2017-09-03T02:07:43.766Z,9.61
2017-09-03T02:08:43.786Z,9.64
2017-09-03T02:09:43.793Z,9.62
2017-09-03T02:10:44.809Z,9.64
2017-09-03T02:11:43.817Z,9.68
2017-09-03T02:12:43.826Z,9.68
2017-09-03T02:13:43.838Z,9.56
2017-09-03T02:14:43.849Z,9.55
2017-09-03T02:15:43.861Z,9.55
2017-09-03T02:16:43.874Z,9.55
2017-09-03T02:17:43.881Z,9.55
2017-09-03T02:18:43.902Z,9.62
2017-09-03T02:19:43.906Z,9.61
2017-09-03T02:20:43.921Z,9.56
2017-09-03T02:21:43.928Z,9.56
2017-09-03T02:22:44.943Z,9.48
2017-09-03T02:23:43.949Z,9.59
2017-09-03T02:24:43.967Z,9.55
2017-09-03T02:25:43.970Z,9.50
2017-09-03T02:26:43.991Z,9.51
2017-09-03T02:27:44.029Z,9.54
2017-09-03T02:28:44.035Z,9.50
2017-09-03T02:29:44.033Z,9.51
2017-09-03T02:30:44.046Z,9.51
2017-09-03T02:31:44.041Z,9.51
2017-09-03T02:32:44.058Z,9.46
2017-09-03T02:33:44.067Z,9.48
2017-09-03T02:34:45.080Z,9.39
2017-09-03T02:35:44.101Z,9.43
2017-09-03T02:36:44.121Z,9.43
2017-09-03T02:37:44.121Z,9.39
2017-09-03T02:38:44.133Z,9.40
2017-09-03T02:39:44.143Z,9.41
2017-09-03T02:40:44.158Z,9.40
2017-09-03T02:41:44.243Z,9.43
2017-09-03T02:42:44.178Z,9.43
2017-09-03T02:43:44.183Z,9.23
2017-09-03T02:44:44.193Z,9.37
2017-09-03T02:45:44.215Z,9.28
2017-09-03T02:46:44.218Z,9.37
2017-09-03T02:47:44.252Z,9.23
2017-09-03T02:48:44.241Z,9.29
2017-09-03T02:49:44.253Z,9.28
2017-09-03T02:50:44.266Z,9.34
2017-09-03T02:51:44.288Z,9.28
2017-09-03T02:52:44.293Z,9.28
2017-09-03T02:53:45.310Z,9.28
2017-09-03T02:54:44.313Z,9.31
2017-09-03T02:55:44.326Z,9.34
2017-09-03T02:56:44.333Z,9.31
2017-09-03T02:57:44.360Z,9.25
2017-09-03T02:58:44.363Z,9.31
2017-09-03T02:59:44.372Z,9.26
2017-09-03T03:00:44.379Z,9.25
2017-09-03T03:01:44.397Z,9.29
2017-09-03T03:02:44.405Z,9.22
2017-09-03T03:03:44.419Z,9.31
2017-09-03T03:04:44.420Z,9.22
2017-09-03T03:05:44.441Z,9.18
2017-09-03T03:06:44.447Z,9.14
2017-09-03T03:07:44.469Z,9.23
2017-09-03T03:08:44.476Z,9.23
2017-09-03T03:09:44.484Z,9.19
2017-09-03T03:10:44.491Z,9.18
2017-09-03T03:11:44.510Z,9.21
2017-09-03T03:12:44.523Z,9.10
2017-09-03T03:13:44.538Z,9.13
2017-09-03T03:14:44.542Z,9.08
2017-09-03T03:15:44.557Z,9.08
2017-09-03T03:16:44.567Z,9.00
2017-09-03T03:17:44.577Z,9.03
2017-09-03T03:18:44.589Z,9.06
2017-09-03T03:19:44.599Z,9.04
2017-09-03T03:20:44.606Z,9.03
2017-09-03T03:21:44.625Z,9.02
2017-09-03T03:22:44.629Z,9.00
2017-09-03T03:23:44.645Z,8.97
2017-09-03T03:24:44.658Z,9.00
2017-09-03T03:25:44.672Z,8.94
2017-09-03T03:26:44.682Z,8.99
2017-09-03T03:27:44.699Z,8.97
2017-09-03T03:28:44.705Z,8.91
2017-09-03T03:29:44.713Z,8.89
2017-09-03T03:30:44.724Z,9.02
2017-09-03T03:31:44.741Z,8.99
2017-09-03T03:32:44.749Z,8.91
2017-09-03T03:33:44.763Z,8.95
2017-09-03T03:34:44.772Z,8.95
2017-09-03T03:35:44.789Z,8.88
2017-09-03T03:36:44.790Z,8.87
2017-09-03T03:37:44.810Z,8.91
2017-09-03T03:38:44.810Z,8.92
2017-09-03T03:39:44.830Z,8.92
2017-09-03T03:40:44.839Z,8.89
2017-09-03T03:41:44.851Z,8.85
2017-09-03T03:42:44.863Z,8.78
2017-09-03T03:43:44.876Z,8.76
2017-09-03T03:44:44.883Z,8.85
2017-09-03T03:45:44.902Z,8.78
2017-09-03T03:46:44.911Z,8.76
2017-09-03T03:47:44.926Z,8.78
2017-09-03T03:48:44.924Z,8.79
2017-09-03T03:49:44.947Z,8.81
2017-09-03T03:50:44.951Z,8.74
2017-09-03T03:51:44.971Z,8.71
2017-09-03T03:52:44.978Z,8.78
2017-09-03T03:53:44.987Z,8.71
2017-09-03T03:54:44.992Z,8.79
2017-09-03T03:55:45.011Z,8.76
2017-09-03T03:56:45.018Z,8.78
2017-09-03T03:57:45.032Z,8.78
2017-09-03T03:58:45.045Z,8.78
2017-09-03T03:59:45.053Z,8.81
2017-09-03T04:00:45.061Z,8.81
2017-09-03T04:01:45.072Z,8.67
2017-09-03T04:02:45.088Z,8.74
2017-09-03T04:03:46.108Z,8.63
2017-09-03T04:04:45.108Z,8.70
2017-09-03T04:05:45.129Z,8.79
2017-09-03T04:06:45.132Z,8.71
2017-09-03T04:07:45.146Z,8.71
2017-09-03T04:08:45.154Z,8.74
2017-09-03T04:09:45.165Z,8.69
2017-09-03T04:10:45.176Z,8.67
2017-09-03T04:11:45.190Z,8.67
2017-09-03T04:12:45.197Z,8.63
2017-09-03T04:13:45.215Z,8.73
2017-09-03T04:14:45.224Z,8.66
2017-09-03T04:15:45.232Z,8.61
2017-09-03T04:16:45.240Z,8.61
2017-09-03T04:17:45.255Z,8.61
2017-09-03T04:18:45.267Z,8.66
2017-09-03T04:19:45.278Z,8.60
2017-09-03T04:20:45.286Z,8.67
2017-09-03T04:21:45.311Z,8.60
2017-09-03T04:22:45.306Z,8.64
2017-09-03T04:23:45.323Z,8.52
2017-09-03T04:24:45.331Z,8.60
2017-09-03T04:25:45.347Z,8.63
2017-09-03T04:26:45.354Z,8.64
2017-09-03T04:27:45.372Z,8.58
2017-09-03T04:28:45.372Z,8.63
2017-09-03T04:29:45.399Z,8.60
2017-09-03T04:30:45.402Z,8.64
2017-09-03T04:31:46.420Z,8.60
2017-09-03T04:32:45.422Z,8.55
2017-09-03T04:33:45.432Z,8.66
2017-09-03T04:34:45.449Z,8.58
2017-09-03T04:35:46.466Z,8.61
2017-09-03T04:36:45.465Z,8.67
2017-09-03T04:37:45.480Z,8.60
2017-09-03T04:38:45.485Z,8.51
2017-09-03T04:39:45.501Z,8.61
2017-09-03T04:40:45.509Z,8.67
2017-09-03T04:41:45.535Z,8.63
2017-09-03T04:42:45.540Z,8.60
2017-09-03T04:43:45.543Z,8.51
2017-09-03T04:44:45.555Z,8.46
2017-09-03T04:45:45.565Z,8.53
2017-09-03T04:46:45.577Z,8.46
2017-09-03T04:47:45.587Z,8.51
2017-09-03T04:48:45.602Z,8.66
2017-09-03T04:49:45.614Z,8.66
2017-09-03T04:50:45.619Z,8.60
2017-09-03T04:51:45.632Z,8.61
2017-09-03T04:52:45.646Z,8.63
2017-09-03T04:53:45.656Z,8.55
2017-09-03T04:54:45.664Z,8.56
2017-09-03T04:55:45.675Z,8.64
2017-09-03T04:56:45.692Z,8.60
2017-09-03T04:57:45.703Z,8.64
2017-09-03T04:58:45.704Z,8.67
2017-09-03T04:59:45.721Z,8.67
2017-09-03T05:00:45.741Z,8.61
2017-09-03T05:01:45.748Z,8.63
2017-09-03T05:02:45.754Z,8.60
2017-09-03T05:03:45.763Z,8.61
2017-09-03T05:04:45.783Z,8.63
2017-09-03T05:05:45.789Z,8.64
2017-09-03T05:06:45.799Z,8.66
2017-09-03T05:07:45.809Z,8.66
2017-09-03T05:08:45.815Z,8.66
2017-09-03T05:09:45.836Z,8.71
2017-09-03T05:10:45.845Z,8.67
2017-09-03T05:11:45.856Z,8.73
2017-09-03T05:12:45.858Z,8.64
2017-09-03T05:13:45.874Z,8.70
2017-09-03T05:14:45.876Z,8.66
2017-09-03T05:15:45.899Z,8.69
2017-09-03T05:16:45.905Z,8.67
2017-09-03T05:17:45.911Z,8.64
2017-09-03T05:18:45.924Z,8.71
2017-09-03T05:19:45.941Z,8.67
2017-09-03T05:20:45.945Z,8.76
2017-09-03T05:21:45.964Z,8.79
2017-09-03T05:22:45.968Z,8.84
2017-09-03T05:23:45.977Z,8.78
2017-09-03T05:24:45.988Z,8.85
2017-09-03T05:25:46.003Z,8.78
2017-09-03T05:26:46.011Z,8.81
2017-09-03T05:27:46.039Z,8.85
2017-09-03T05:28:46.030Z,8.85
2017-09-03T05:29:46.045Z,8.84
2017-09-03T05:30:46.060Z,8.85
2017-09-03T05:31:46.068Z,8.79
2017-09-03T05:32:46.080Z,8.92
2017-09-03T05:33:46.090Z,8.89
2017-09-03T05:34:46.099Z,8.92
2017-09-03T05:35:46.112Z,8.89
2017-09-03T05:36:46.125Z,8.89
2017-09-03T05:37:46.132Z,8.97
2017-09-03T05:38:46.140Z,8.97
2017-09-03T05:39:46.158Z,9.04
2017-09-03T05:40:46.165Z,9.03
2017-09-03T05:41:46.174Z,9.06
2017-09-03T05:42:46.185Z,9.06
2017-09-03T05:43:46.206Z,9.00
2017-09-03T05:44:46.211Z,9.08
2017-09-03T05:45:46.218Z,9.08
2017-09-03T05:46:46.231Z,9.10
2017-09-03T05:47:46.237Z,9.13
2017-09-03T05:48:46.251Z,9.13
2017-09-03T05:49:46.268Z,9.16
2017-09-03T05:50:46.274Z,9.19
2017-09-03T05:51:46.375Z,9.16
2017-09-03T05:52:46.296Z,9.11
2017-09-03T05:53:46.311Z,9.18
2017-09-03T05:54:46.316Z,9.23
2017-09-03T05:55:46.328Z,9.28
2017-09-03T05:56:46.337Z,9.28
2017-09-03T05:57:46.346Z,9.25
2017-09-03T05:58:46.431Z,9.32
2017-09-03T05:59:46.372Z,9.25
2017-09-03T06:00:46.392Z,9.40
2017-09-03T06:01:47.394Z,9.41
2017-09-03T06:02:46.399Z,9.43
2017-09-03T06:03:46.412Z,9.40
2017-09-03T06:04:46.421Z,9.40
2017-09-03T06:05:46.509Z,9.48
2017-09-03T06:06:46.441Z,9.50
2017-09-03T06:07:46.459Z,9.59
2017-09-03T06:08:46.463Z,9.55
2017-09-03T06:09:46.478Z,9.58
2017-09-03T06:10:46.484Z,9.58
2017-09-03T06:11:46.504Z,9.51
2017-09-03T06:12:46.510Z,9.62
2017-09-03T06:13:46.527Z,9.64
2017-09-03T06:14:46.531Z,9.66
2017-09-03T06:15:46.544Z,9.64
2017-09-03T06:16:46.549Z,9.62
2017-09-03T06:17:46.560Z,9.80
2017-09-03T06:18:46.574Z,9.76
